Time;durP1;ratioP1;P1;durP2;ratioP2;P2;SDS_P1;SDS_P2;PMS_P1;PMS_P2;Temp;Humidity;BMP_temperature;BMP_pressure;BME280_temperature;BME280_humidity;BME280_pressure;Samples;Min_cycle;Max_cycle;Signal;HPM_P1;HPM_P2
2022/04/05 03:57:54;;;;;;;16.65;12.30;;;;;;;7.19;59.90;99834.56;5605863;31;77015;-57
2022/04/05 04:00:56;;;;;;;20.15;13.98;;;;;;;7.19;59.90;99834.56;5583485;32;33530;-57
2022/04/05 04:03:59;;;;;;;17.40;13.57;;;;;;;6.68;61.09;99836.50;5583364;31;34018;-57
2022/04/05 04:07:02;;;;;;;17.77;12.88;;;;;;;6.74;60.49;99844.22;5583361;31;33392;-57
2022/04/05 04:10:05;;;;;;;16.67;12.93;;;;;;;6.73;61.25;99844.50;5583201;31;33478;-57
2022/04/05 04:13:08;;;;;;;19.87;13.52;;;;;;;6.85;60.55;99837.00;5582892;31;34029;-57
2022/04/05 04:16:11;;;;;;;19.45;14.23;;;;;;;6.87;60.64;99850.09;5583091;31;33508;-57
2022/04/05 04:19:15;;;;;;;18.25;13.68;;;;;;;6.86;60.14;99841.28;5583075;31;32838;-57
2022/04/05 04:22:18;;;;;;;17.87;13.93;;;;;;;6.88;59.92;99844.47;5583107;32;33962;-57
2022/04/05 04:25:21;;;;;;;17.52;13.85;;;;;;;6.92;60.02;99834.06;5583173;32;33694;-57
2022/04/05 04:28:24;;;;;;;19.70;15.07;;;;;;;6.92;60.17;99840.22;5568253;31;33351;-57
2022/04/05 04:31:26;;;;;;;18.95;14.00;;;;;;;6.92;60.11;99834.91;5563126;32;33776;-57
2022/04/05 04:34:29;;;;;;;16.30;14.15;;;;;;;6.91;60.10;99841.28;5563601;32;33830;-57
2022/04/05 04:37:31;;;;;;;17.87;13.32;;;;;;;6.99;60.27;99845.28;5562907;32;33628;-57
2022/04/05 04:40:34;;;;;;;20.33;14.23;;;;;;;7.12;59.53;99843.91;5563151;32;33727;-57
2022/04/05 04:43:36;;;;;;;19.60;14.85;;;;;;;7.14;59.40;99844.44;5563196;32;33313;-57
2022/04/05 04:46:39;;;;;;;18.73;14.30;;;;;;;7.15;59.43;99848.69;5577956;32;33594;-57
2022/04/05 04:49:41;;;;;;;20.40;14.90;;;;;;;7.18;59.29;99853.47;5583216;32;33879;-57
2022/04/05 04:52:43;;;;;;;24.35;15.27;;;;;;;7.08;59.94;99846.31;5581924;31;33766;-57
2022/04/05 04:55:46;;;;;;;18.33;14.18;;;;;;;7.12;59.98;99855.38;5582245;31;33798;-57
2022/04/05 04:59:08;;;;;;;20.37;14.48;;;;;;;7.18;59.61;99856.16;5582450;32;34083;-57
2022/04/05 05:02:10;;;;;;;17.58;14.77;;;;;;;7.15;59.63;99854.84;5582327;31;33563;-57
2022/04/05 05:05:16;;;;;;;16.35;13.45;;;;;;;7.15;59.77;99854.03;5582723;31;33700;-57
2022/04/05 05:08:18;;;;;;;17.45;13.93;;;;;;;7.17;59.58;99857.22;5573489;32;33409;-57
2022/04/05 05:11:20;;;;;;;19.17;14.05;;;;;;;7.35;59.36;99859.34;5568965;32;33687;-57
2022/04/05 05:14:22;;;;;;;20.62;14.95;;;;;;;7.35;59.26;99848.66;5569540;32;34148;-57
2022/04/05 05:17:24;;;;;;;18.15;14.68;;;;;;;7.44;59.44;99851.56;5568978;32;34337;-57
2022/04/05 05:20:27;;;;;;;18.17;14.82;;;;;;;7.35;59.55;99850.50;5568918;32;33855;-57
2022/04/05 05:23:29;;;;;;;18.17;14.27;;;;;;;7.50;59.04;99848.59;5568259;32;34326;-57
2022/04/05 05:26:31;;;;;;;18.80;13.90;;;;;;;7.53;58.84;99839.25;5555559;32;33968;-57
2022/04/05 05:29:34;;;;;;;18.77;14.00;;;;;;;7.62;58.95;99834.16;5569211;32;33609;-57
2022/04/05 05:32:44;;;;;;;18.45;14.18;;;;;;;7.74;58.94;99840.75;5568740;32;33120;-57
2022/04/05 05:35:47;;;;;;;16.75;13.52;;;;;;;7.80;58.54;99838.06;5568784;32;33680;-57
2022/04/05 05:38:49;;;;;;;20.08;13.65;;;;;;;7.92;58.01;99838.53;5568014;32;34230;-57
2022/04/05 05:41:51;;;;;;;18.30;14.15;;;;;;;8.10;57.59;99839.75;5549241;32;34143;-57
2022/04/05 05:44:53;;;;;;;19.25;14.43;;;;;;;8.08;57.76;99839.22;5548947;32;34819;-57
2022/04/05 05:47:56;;;;;;;16.37;13.25;;;;;;;8.09;58.23;99840.84;5549090;32;33591;-57
2022/04/05 05:50:59;;;;;;;16.27;12.85;;;;;;;8.05;58.42;99845.16;5548954;32;33630;-58
2022/04/05 05:54:02;;;;;;;17.00;13.73;;;;;;;8.06;58.71;99852.88;5547940;32;33243;-57
2022/04/05 05:57:04;;;;;;;18.90;14.43;;;;;;;8.12;58.00;99845.62;5548760;32;33699;-57
2022/04/05 06:00:10;;;;;;;19.12;13.45;;;;;;;8.10;57.69;99855.78;5548671;32;33613;-57
2022/04/05 06:03:12;;;;;;;18.77;14.15;;;;;;;7.81;58.04;99864.47;5548229;32;34145;-57
2022/04/05 06:06:15;;;;;;;18.02;13.40;;;;;;;7.92;58.51;99863.37;5548128;32;33714;-57
2022/04/05 06:09:17;;;;;;;18.98;13.85;;;;;;;7.98;58.87;99866.81;5562937;32;33551;-57
2022/04/05 06:12:19;;;;;;;17.95;14.32;;;;;;;7.93;57.73;99874.84;5568864;32;33627;-57
2022/04/05 06:15:23;;;;;;;17.48;13.95;;;;;;;7.99;58.54;99876.41;5568342;32;33679;-57
2022/04/05 06:18:27;;;;;;;16.90;12.82;;;;;;;8.04;58.78;99880.91;5567924;32;33900;-57
2022/04/05 06:21:29;;;;;;;17.15;12.93;;;;;;;8.04;57.96;99879.03;5568121;32;33190;-57
2022/04/05 06:24:31;;;;;;;18.92;13.55;;;;;;;7.97;58.35;99876.66;5568575;32;33656;-57
2022/04/05 06:27:33;;;;;;;19.17;13.85;;;;;;;8.06;57.94;99876.91;5568247;31;33487;-57
2022/04/05 06:30:38;;;;;;;18.23;14.02;;;;;;;8.15;58.02;99858.44;5568393;32;34290;-57
2022/04/05 06:33:40;;;;;;;19.42;13.65;;;;;;;8.34;58.32;99861.22;5568680;32;33305;-57
2022/04/05 06:36:42;;;;;;;20.02;14.15;;;;;;;8.39;57.67;99855.91;5568417;32;33837;-57
2022/04/05 06:39:45;;;;;;;19.17;13.25;;;;;;;8.40;57.45;99866.28;5548939;32;33236;-57
2022/04/05 06:42:48;;;;;;;17.08;12.48;;;;;;;8.55;58.08;99849.37;5549056;32;33429;-57
2022/04/05 06:45:51;;;;;;;17.12;12.43;;;;;;;8.85;57.10;99847.53;5548855;32;34463;-57
2022/04/05 06:48:54;;;;;;;17.02;12.65;;;;;;;9.32;54.99;99851.31;5563400;32;34314;-58
2022/04/05 06:51:56;;;;;;;15.25;12.23;;;;;;;9.26;55.14;99853.25;5565709;32;33617;-57
2022/04/05 06:54:59;;;;;;;22.77;12.37;;;;;;;9.12;55.52;99860.34;5564433;32;33310;-57
2022/04/05 06:58:02;;;;;;;15.73;11.63;;;;;;;9.18;55.53;99856.56;5568160;32;33942;-57
2022/04/05 07:01:05;;;;;;;18.87;11.88;;;;;;;9.18;55.16;99852.00;5567781;32;33737;-57
2022/04/05 07:04:07;;;;;;;15.93;12.45;;;;;;;9.30;55.09;99848.13;5559176;32;33687;-58
2022/04/05 07:07:10;;;;;;;14.80;12.27;;;;;;;9.58;54.16;99839.25;5548564;32;33617;-57
2022/04/05 07:10:15;;;;;;;18.95;12.35;;;;;;;9.49;54.47;99840.94;5548827;32;34341;-57
2022/04/05 07:13:17;;;;;;;14.30;11.93;;;;;;;9.36;54.37;99852.34;5553996;32;33943;-57
2022/04/05 07:16:19;;;;;;;15.85;11.70;;;;;;;9.46;54.49;99846.88;5566473;32;33374;-57
2022/04/05 07:19:22;;;;;;;14.93;11.60;;;;;;;9.47;54.04;99855.69;5566126;32;33863;-57
2022/04/05 07:22:25;;;;;;;19.27;13.02;;;;;;;9.52;54.94;99850.28;5568340;32;33817;-57
2022/04/05 07:25:28;;;;;;;16.48;12.43;;;;;;;9.64;54.65;99848.00;5566991;32;33647;-57
2022/04/05 07:28:30;;;;;;;15.60;11.90;;;;;;;9.75;54.23;99843.31;5567009;32;34416;-58
2022/04/05 07:31:32;;;;;;;13.95;11.25;;;;;;;9.80;53.52;99835.22;5566468;32;33616;-57
2022/04/05 07:34:35;;;;;;;14.50;10.25;;;;;;;9.94;54.61;99824.59;5566749;32;33787;-57
2022/04/05 07:37:38;;;;;;;13.38;10.35;;;;;;;10.23;54.08;99829.78;5566940;32;33880;-57
2022/04/05 07:40:49;;;;;;;16.10;10.07;;;;;;;10.38;52.33;99823.44;5567224;32;33262;-57
2022/04/05 07:43:51;;;;;;;14.55;9.68;;;;;;;10.30;51.96;99824.91;5566743;32;33530;-57
2022/04/05 07:46:53;;;;;;;15.25;10.38;;;;;;;10.42;52.57;99827.13;5566237;32;33717;-57
2022/04/05 07:49:56;;;;;;;12.88;9.07;;;;;;;10.62;52.26;99826.78;5566645;32;34266;-57
2022/04/05 07:52:58;;;;;;;13.32;9.45;;;;;;;10.76;51.45;99832.19;5567660;32;33902;-57
2022/04/05 07:56:01;;;;;;;13.75;9.43;;;;;;;10.88;50.94;99835.19;5562590;32;33260;-57
2022/04/05 07:59:03;;;;;;;14.80;10.10;;;;;;;10.86;50.54;99837.41;5565425;32;33778;-57
2022/04/05 08:02:06;;;;;;;16.90;11.57;;;;;;;10.77;50.42;99841.84;5566749;31;34419;-57
2022/04/05 08:05:29;;;;;;;13.93;10.43;;;;;;;10.76;51.17;99842.91;5562661;32;34007;-57
2022/04/05 08:08:31;;;;;;;14.95;9.15;;;;;;;10.88;50.62;99837.88;5565857;32;33675;-57
2022/04/05 08:11:53;;;;;;;13.20;9.63;;;;;;;10.95;49.88;99832.13;5557598;32;33693;-57
2022/04/05 08:14:55;;;;;;;14.30;9.43;;;;;;;11.04;49.29;99830.34;5565542;32;34423;-57
2022/04/05 08:17:58;;;;;;;15.30;9.15;;;;;;;11.12;49.85;99834.22;5556406;32;33579;-58
2022/04/05 08:21:00;;;;;;;11.20;8.63;;;;;;;11.39;49.02;99828.06;5566422;32;33226;-57
2022/04/05 08:24:04;;;;;;;11.23;8.32;;;;;;;11.50;47.53;99821.44;5566053;32;34506;-57
2022/04/05 08:27:06;;;;;;;11.75;7.82;;;;;;;11.63;47.17;99825.19;5565136;32;34351;-57
2022/04/05 08:30:10;;;;;;;12.02;8.77;;;;;;;11.67;46.80;99821.59;5565687;32;34075;-57
2022/04/05 08:33:13;;;;;;;12.95;8.55;;;;;;;11.66;47.33;99824.59;5565508;32;33731;-57
2022/04/05 08:36:15;;;;;;;12.60;9.10;;;;;;;11.58;48.18;99839.50;5547803;32;33671;-57
2022/04/05 08:39:17;;;;;;;13.35;8.23;;;;;;;11.61;48.79;99820.13;5549534;32;33625;-58
2022/04/05 08:42:20;;;;;;;10.65;8.48;;;;;;;11.96;48.22;99821.28;5561297;32;33278;-57
2022/04/05 08:45:23;;;;;;;11.75;8.63;;;;;;;11.94;47.26;99822.69;5559999;32;33250;-57
2022/04/05 08:48:28;;;;;;;11.75;8.20;;;;;;;12.00;47.08;99826.84;5549807;32;33487;-57
2022/04/05 08:51:30;;;;;;;8.90;7.03;;;;;;;12.14;46.58;99826.78;5549811;32;33364;-57
2022/04/05 08:54:33;;;;;;;9.93;8.45;;;;;;;12.18;47.15;99831.25;5561630;32;33722;-57
2022/04/05 08:57:35;;;;;;;8.48;6.85;;;;;;;12.07;45.03;99827.22;5562726;32;33902;-57
2022/04/05 09:00:38;;;;;;;9.18;7.43;;;;;;;11.99;43.91;99828.75;5567863;32;33675;-57
2022/04/05 09:03:40;;;;;;;14.18;7.65;;;;;;;12.06;44.13;99822.94;5566852;32;33617;-57
2022/04/05 09:06:43;;;;;;;12.60;7.50;;;;;;;12.22;45.42;99812.66;5568115;32;33721;-58
2022/04/05 09:09:45;;;;;;;10.65;8.07;;;;;;;12.29;44.52;99815.69;5558252;32;33787;-57
2022/04/05 09:12:50;;;;;;;10.85;7.00;;;;;;;12.29;44.96;99817.59;5562427;32;34769;-57
2022/04/05 09:15:56;;;;;;;10.52;7.43;;;;;;;12.26;44.92;99808.25;5565341;32;33726;-55
2022/04/05 09:19:13;;;;;;;9.25;7.03;;;;;;;12.32;45.04;99819.69;5558271;32;33607;-56
2022/04/05 09:22:30;;;;;;;;;;;;;;;12.36;44.52;99817.97;5556872;32;33681;-55
2022/04/05 09:25:32;;;;;;;11.25;7.07;;;;;;;12.43;45.15;99821.81;5559306;32;34581;-56
2022/04/05 09:28:43;;;;;;;13.05;7.10;;;;;;;12.38;45.93;99821.13;5548995;32;34341;-56
2022/04/05 09:31:48;;;;;;;15.43;7.40;;;;;;;12.42;44.48;99817.53;5557855;32;33688;-55
2022/04/05 09:34:51;;;;;;;11.90;8.18;;;;;;;12.57;44.25;99813.66;5562686;32;33667;-55
2022/04/05 09:38:16;;;;;;;10.65;7.53;;;;;;;12.42;45.43;99814.84;5561279;32;33785;-56
2022/04/05 09:41:22;;;;;;;9.05;7.12;;;;;;;12.36;45.79;99820.66;5553041;32;34453;-55
2022/04/05 09:44:27;;;;;;;12.43;7.65;;;;;;;12.39;46.17;99820.84;5551487;32;33636;-55
2022/04/05 09:47:29;;;;;;;11.43;7.00;;;;;;;12.40;46.45;99817.03;5568552;32;33843;-55
2022/04/05 09:50:32;;;;;;;12.43;7.00;;;;;;;12.36;45.26;99813.38;5558633;32;34317;-55
2022/04/05 09:53:51;;;;;;;10.52;7.00;;;;;;;12.37;46.20;99816.84;5567615;32;34013;-56
2022/04/05 09:57:06;;;;;;;9.20;7.45;;;;;;;12.39;47.27;99814.66;5564327;32;33806;-55
2022/04/05 10:00:11;;;;;;;11.75;8.43;;;;;;;12.34;47.00;99807.50;5551781;32;33751;-55
2022/04/05 10:03:18;;;;;;;12.53;9.00;;;;;;;12.26;46.98;99812.84;5568918;32;34360;-55
2022/04/05 10:06:22;;;;;;;14.93;8.50;;;;;;;12.17;48.05;99815.44;5565783;32;33684;-55
2022/04/05 10:09:26;;;;;;;10.68;8.32;;;;;;;12.18;48.00;99823.19;5564961;32;33698;-55
2022/04/05 10:12:28;;;;;;;11.52;8.88;;;;;;;12.25;48.68;99811.22;5568433;32;34593;-55
2022/04/05 10:15:31;;;;;;;11.82;8.43;;;;;;;12.22;49.59;99805.38;5565004;32;33384;-55
2022/04/05 10:18:35;;;;;;;8.80;7.07;;;;;;;12.34;48.97;99820.16;5567036;32;33805;-55
2022/04/05 10:21:41;;;;;;;11.45;6.60;;;;;;;12.37;47.46;99814.16;5566762;32;33728;-55
2022/04/05 10:24:45;;;;;;;10.87;6.03;;;;;;;12.49;47.78;99811.72;5560505;32;33595;-55
2022/04/05 10:27:48;;;;;;;8.00;5.85;;;;;;;12.56;46.25;99805.91;5567858;32;32341;-56
2022/04/05 10:31:02;;;;;;;7.93;5.78;;;;;;;12.77;46.81;99806.19;5567154;32;33784;-55
2022/04/05 10:34:04;;;;;;;8.45;5.78;;;;;;;12.84;44.15;99803.84;5553593;32;35321;-56
2022/04/05 10:37:13;;;;;;;8.40;6.10;;;;;;;12.99;44.91;99797.28;5567936;32;33743;-56
2022/04/05 10:40:17;;;;;;;7.80;6.05;;;;;;;13.04;44.68;99811.37;5565582;32;33637;-55
2022/04/05 10:43:19;;;;;;;9.50;6.47;;;;;;;13.18;44.56;99800.53;5562838;32;34285;-55
2022/04/05 10:46:50;;;;;;;8.45;6.70;;;;;;;13.35;44.91;99806.00;5555011;32;34423;-55
2022/04/05 10:50:18;;;;;;;12.75;6.93;;;;;;;13.52;45.21;99810.63;5560815;32;34016;-55
2022/04/05 10:53:28;;;;;;;10.10;6.53;;;;;;;13.35;43.77;99807.91;5555502;32;33858;-55
2022/04/05 10:56:31;;;;;;;9.88;6.87;;;;;;;13.10;43.45;99795.91;5559504;32;33959;-55
2022/04/05 10:59:48;;;;;;;8.43;6.37;;;;;;;13.12;44.26;99799.06;5567252;32;33800;-55
2022/04/05 11:02:53;;;;;;;8.45;6.75;;;;;;;13.14;44.22;99800.34;5561785;32;33490;-55
2022/04/05 11:06:03;;;;;;;10.35;6.40;;;;;;;13.30;44.10;99805.34;5561005;32;33699;-55
2022/04/05 11:09:24;;;;;;;9.32;6.05;;;;;;;13.45;44.18;99791.44;5565668;32;34440;-56
2022/04/05 11:12:30;;;;;;;7.87;5.50;;;;;;;13.58;44.73;99795.13;5567084;32;33248;-56
2022/04/05 11:15:39;;;;;;;;;;;;;;;13.76;45.11;99787.84;5567239;32;33788;-55
2022/04/05 11:18:44;;;;;;;7.60;5.43;;;;;;;13.82;43.52;99800.84;5564662;32;34294;-55
2022/04/05 11:22:01;;;;;;;8.32;5.85;;;;;;;13.67;43.05;99797.81;5561016;32;34529;-55
2022/04/05 11:25:11;;;;;;;7.32;5.30;;;;;;;13.46;43.45;99803.00;5551588;32;33663;-55
2022/04/05 11:28:21;;;;;;;8.38;5.10;;;;;;;13.40;43.63;99799.66;5554077;32;33754;-55
2022/04/05 11:31:32;;;;;;;6.62;4.35;;;;;;;13.24;43.34;99801.16;5548397;32;34095;-55
2022/04/05 11:34:38;;;;;;;7.53;3.80;;;;;;;13.11;43.61;99784.84;5564585;32;33739;-55
2022/04/05 11:37:41;;;;;;;5.53;3.50;;;;;;;13.11;43.73;99808.22;5566573;32;33266;-55
2022/04/05 11:40:52;;;;;;;4.93;3.30;;;;;;;12.98;44.27;99812.63;5567778;32;35290;-55
2022/04/05 11:43:58;;;;;;;5.45;3.83;;;;;;;12.98;45.33;99803.75;5565186;32;33596;-55
2022/04/05 11:47:00;;;;;;;5.37;4.13;;;;;;;13.00;44.82;99807.72;5566950;32;33735;-55
2022/04/05 11:50:08;;;;;;;7.45;4.20;;;;;;;13.00;46.03;99815.78;5562380;32;33188;-55
2022/04/05 11:53:24;;;;;;;8.27;3.87;;;;;;;12.83;46.64;99810.34;5556141;32;33655;-55
2022/04/05 11:56:27;;;;;;;5.25;3.28;;;;;;;12.84;47.57;99820.00;5564771;32;33751;-55
2022/04/05 11:59:30;;;;;;;4.40;3.78;;;;;;;12.87;47.95;99820.16;5567578;32;33725;-55
2022/04/05 12:02:33;;;;;;;5.37;3.97;;;;;;;12.86;49.50;99823.97;5566948;32;34385;-55
2022/04/05 12:05:43;;;;;;;4.68;3.90;;;;;;;12.86;48.17;99813.19;5561317;32;33728;-55
2022/04/05 12:08:49;;;;;;;6.40;4.35;;;;;;;12.92;48.88;99820.03;5557807;32;34254;-55
2022/04/05 12:11:52;;;;;;;5.57;4.15;;;;;;;13.05;48.84;99812.19;5566534;32;33591;-55
2022/04/05 12:14:54;;;;;;;6.03;3.37;;;;;;;13.11;49.60;99819.81;5564182;32;33691;-55
2022/04/05 12:18:17;;;;;;;3.97;3.08;;;;;;;13.23;48.35;99808.44;5562387;32;33626;-55
2022/04/05 12:21:24;;;;;;;4.43;3.45;;;;;;;13.31;48.46;99807.72;5559031;32;34340;-55
2022/04/05 12:24:29;;;;;;;5.62;3.85;;;;;;;13.30;49.53;99805.34;5568258;32;33774;-55
2022/04/05 12:27:31;;;;;;;4.93;3.47;;;;;;;13.36;48.58;99809.47;5550405;32;33654;-55
2022/04/05 12:30:34;;;;;;;5.90;3.60;;;;;;;13.48;48.27;99811.59;5567810;32;33730;-55
2022/04/05 12:33:37;;;;;;;4.97;3.95;;;;;;;13.48;47.41;99812.38;5570017;32;33572;-55
2022/04/05 12:36:56;;;;;;;7.32;4.30;;;;;;;13.27;48.04;99805.97;5569973;32;33655;-55
2022/04/05 12:39:58;;;;;;;4.25;3.45;;;;;;;13.23;48.37;99800.38;5565780;32;33769;-55
2022/04/05 12:43:13;;;;;;;4.95;2.90;;;;;;;13.32;47.56;99795.06;5569657;32;33653;-55
2022/04/05 12:46:15;;;;;;;4.95;2.70;;;;;;;13.03;47.32;99788.28;5562943;32;33510;-55
2022/04/05 12:49:34;;;;;;;4.85;2.75;;;;;;;12.88;48.14;99773.34;5568214;32;34323;-55
2022/04/05 12:52:39;;;;;;;6.40;2.75;;;;;;;12.93;48.01;99772.41;5568886;32;34324;-55
2022/04/05 12:55:53;;;;;;;5.28;3.37;;;;;;;12.97;49.46;99783.34;5568421;32;33268;-55
2022/04/05 12:59:03;;;;;;;6.28;3.03;;;;;;;13.02;49.02;99778.63;5559216;32;34260;-55
2022/04/05 13:02:05;;;;;;;5.28;3.15;;;;;;;13.11;48.02;99782.16;5566853;32;33704;-55
2022/04/05 13:08:38;;;;;;;3.92;3.10;;;;;;;13.16;48.19;99773.91;5568377;32;33640;-55
2022/04/05 13:11:41;;;;;;;5.32;3.72;;;;;;;13.07;48.03;99769.59;5569055;32;34459;-57
2022/04/05 13:14:45;;;;;;;5.45;3.70;;;;;;;13.17;48.19;99775.50;5569781;32;33657;-57
2022/04/05 13:17:47;;;;;;;5.40;3.40;;;;;;;13.14;48.27;99776.16;5564413;32;34392;-57
2022/04/05 13:21:17;;;;;;;6.10;3.40;;;;;;;13.19;48.49;99764.44;5557333;32;34407;-57
2022/04/05 13:24:22;;;;;;;7.62;3.80;;;;;;;13.32;48.14;99766.25;5569680;32;32431;-57
2022/04/05 13:27:25;;;;;;;7.57;3.92;;;;;;;13.48;51.64;99760.41;5567819;32;33788;-57
2022/04/05 13:30:27;;;;;;;6.60;3.70;;;;;;;13.59;47.99;99769.78;5568285;32;34321;-57
2022/04/05 13:33:29;;;;;;;5.05;3.55;;;;;;;13.56;48.49;99759.63;5558195;32;33750;-57
2022/04/05 13:36:32;;;;;;;7.45;3.90;;;;;;;13.38;48.69;99758.81;5555784;32;33614;-57
2022/04/05 13:39:35;;;;;;;5.95;3.47;;;;;;;13.51;48.64;99757.06;5569472;32;33865;-57
2022/04/05 13:42:37;;;;;;;5.12;3.30;;;;;;;13.51;48.83;99768.66;5566876;32;33775;-57
2022/04/05 13:45:42;;;;;;;6.97;3.78;;;;;;;13.50;49.03;99767.06;5556766;32;33402;-57
2022/04/05 13:48:45;;;;;;;15.43;4.03;;;;;;;13.49;49.02;99767.38;5569065;32;33782;-56
2022/04/05 13:51:51;;;;;;;6.82;3.17;;;;;;;13.53;49.21;99762.94;5568471;32;34408;-57
2022/04/05 13:55:13;;;;;;;4.25;3.47;;;;;;;13.54;48.83;99762.66;5569289;32;33753;-57
2022/04/05 13:58:16;;;;;;;5.32;3.40;;;;;;;13.49;49.46;99764.69;5562016;32;33268;-57
2022/04/05 14:01:18;;;;;;;4.35;3.35;;;;;;;13.45;48.60;99750.28;5549810;32;34212;-57
2022/04/05 14:04:21;;;;;;;5.25;3.45;;;;;;;13.52;48.98;99747.91;5550573;32;33842;-57
2022/04/05 14:07:23;;;;;;;4.55;3.30;;;;;;;13.55;48.70;99745.38;5564185;32;34462;-57
2022/04/05 14:10:25;;;;;;;5.20;3.50;;;;;;;13.62;48.97;99755.69;5553649;32;33674;-57
2022/04/05 14:13:48;;;;;;;4.20;3.17;;;;;;;13.51;49.24;99752.50;5558721;32;33786;-57
2022/04/05 14:16:52;;;;;;;5.45;3.72;;;;;;;13.56;48.72;99751.53;5568331;32;33736;-57
2022/04/05 14:19:55;;;;;;;6.57;4.03;;;;;;;13.40;49.22;99751.19;5555884;32;33675;-57
2022/04/05 14:22:57;;;;;;;7.03;3.55;;;;;;;13.45;49.34;99743.00;5563597;32;33634;-57
2022/04/05 14:26:00;;;;;;;4.18;3.20;;;;;;;13.36;49.08;99739.47;5555264;32;34372;-57
2022/04/05 14:29:03;;;;;;;6.00;3.33;;;;;;;13.31;49.07;99726.97;5556514;32;33943;-57
2022/04/05 14:32:06;;;;;;;4.20;3.05;;;;;;;13.30;49.28;99735.34;5565690;32;33798;-57
2022/04/05 14:35:08;;;;;;;5.15;2.90;;;;;;;13.44;49.05;99727.13;5552603;32;33977;-57
2022/04/05 14:38:29;;;;;;;4.18;2.97;;;;;;;13.58;49.50;99742.06;5563458;32;33872;-57
2022/04/05 14:41:33;;;;;;;4.57;3.17;;;;;;;13.65;48.67;99740.78;5564150;32;34391;-57
2022/04/05 14:44:35;;;;;;;3.22;2.60;;;;;;;13.53;48.45;99736.00;5553696;32;33631;-57
2022/04/05 14:47:37;;;;;;;3.85;3.00;;;;;;;13.62;48.87;99739.53;5560852;32;33095;-57
2022/04/05 14:50:40;;;;;;;3.72;3.10;;;;;;;13.69;48.77;99737.13;5556367;32;33640;-57
2022/04/05 14:53:51;;;;;;;3.50;2.70;;;;;;;13.76;49.25;99736.66;5550804;32;34463;-57
2022/04/05 14:56:53;;;;;;;3.85;2.90;;;;;;;13.72;48.19;99741.13;5552190;32;33267;-57
2022/04/05 14:59:57;;;;;;;7.75;2.83;;;;;;;13.57;49.17;99740.44;5559598;32;33708;-57
2022/04/05 15:02:59;;;;;;;4.75;2.70;;;;;;;13.51;48.83;99733.66;5568506;32;33808;-57
2022/04/05 15:06:02;;;;;;;4.80;3.20;;;;;;;13.45;49.52;99737.59;5569095;32;33586;-57
2022/04/05 15:09:04;;;;;;;4.53;3.03;;;;;;;13.45;50.03;99743.00;5568139;32;34209;-58
2022/04/05 15:12:08;;;;;;;5.62;2.90;;;;;;;13.44;49.25;99741.37;5568477;32;33675;-57
2022/04/05 15:15:13;;;;;;;4.28;2.95;;;;;;;13.58;49.56;99744.75;5568792;32;33716;-57
2022/04/05 15:18:15;;;;;;;4.53;3.30;;;;;;;13.49;50.31;99738.56;5567962;32;33960;-58
2022/04/05 15:21:17;;;;;;;3.85;2.85;;;;;;;13.57;50.00;99745.84;5566484;32;33987;-57
2022/04/05 15:24:23;;;;;;;4.57;3.35;;;;;;;13.59;49.54;99740.94;5568501;32;34519;-57
2022/04/05 15:27:25;;;;;;;6.00;3.08;;;;;;;13.47;50.06;99738.06;5567624;32;33596;-57
2022/04/05 15:30:32;;;;;;;6.03;2.57;;;;;;;13.56;50.06;99743.47;5568115;32;33383;-57
2022/04/05 15:33:35;;;;;;;3.15;2.55;;;;;;;13.61;51.35;99746.81;5567618;32;33666;-57
2022/04/05 15:36:37;;;;;;;4.28;3.40;;;;;;;13.73;50.25;99750.78;5567639;32;33742;-57
2022/04/05 15:39:40;;;;;;;3.35;2.75;;;;;;;13.74;49.98;99747.78;5568339;32;33703;-57
2022/04/05 15:42:44;;;;;;;6.25;2.87;;;;;;;13.60;50.06;99755.19;5567383;32;33748;-57
2022/04/05 15:45:47;;;;;;;4.40;2.62;;;;;;;13.50;50.06;99742.81;5564636;32;34518;-57
2022/04/05 15:48:50;;;;;;;3.62;2.50;;;;;;;13.67;50.13;99746.62;5566780;32;33747;-57
2022/04/05 15:51:52;;;;;;;3.67;2.55;;;;;;;13.57;50.01;99740.44;5565777;32;33912;-57
2022/04/05 15:54:56;;;;;;;4.15;2.70;;;;;;;13.52;50.70;99745.22;5565882;32;33888;-57
2022/04/05 15:57:59;;;;;;;4.75;2.60;;;;;;;13.38;50.99;99745.34;5565325;32;33768;-57
2022/04/05 16:01:01;;;;;;;6.10;2.90;;;;;;;13.36;50.60;99742.16;5567308;32;33737;-57
2022/04/05 16:04:04;;;;;;;3.90;2.40;;;;;;;13.32;51.56;99743.91;5568131;32;33246;-57
